Time;durP1;ratioP1;P1;durP2;ratioP2;P2;SDS_P1;SDS_P2;PMS_P1;PMS_P2;Temp;Humidity;BMP_temperature;BMP_pressure;BME280_temperature;BME280_humidity;BME280_pressure;Samples;Min_cycle;Max_cycle;Signal;HPM_P1;HPM_P2
2023/08/19 00:01:05;;;;;;;;;;;20.50;99.90;;;;;;4836313;29;20038;-91
2023/08/19 00:03:32;;;;;;;15.02;13.73;;;20.50;99.90;;;;;;4828633;29;19920;-84
2023/08/19 00:06:05;;;;;;;15.30;13.73;;;20.40;99.90;;;;;;4827622;29;20053;-88
2023/08/19 00:08:31;;;;;;;15.15;13.70;;;20.30;99.90;;;;;;4838177;29;20687;-83
2023/08/19 00:10:56;;;;;;;14.90;13.50;;;20.30;99.90;;;;;;4851258;29;20050;-85
2023/08/19 00:13:22;;;;;;;14.80;13.30;;;20.30;99.90;;;;;;4827281;29;20041;-86
2023/08/19 00:15:48;;;;;;;15.75;14.25;;;20.30;99.90;;;;;;4813280;29;20061;-86
2023/08/19 00:18:13;;;;;;;14.90;13.60;;;20.30;99.90;;;;;;4833238;29;20132;-85
2023/08/19 00:20:39;;;;;;;15.43;14.07;;;20.20;99.90;;;;;;4826586;29;20049;-86
2023/08/19 00:23:05;;;;;;;14.73;13.35;;;20.30;99.90;;;;;;4837532;29;20042;-87
2023/08/19 00:25:33;;;;;;;15.43;14.10;;;20.20;99.90;;;;;;4810645;29;20132;-87
2023/08/19 00:27:59;;;;;;;15.57;14.18;;;20.20;99.90;;;;;;4840299;29;21328;-85
2023/08/19 00:30:25;;;;;;;15.73;14.25;;;20.20;99.90;;;;;;4828125;29;20045;-90
2023/08/19 00:32:51;;;;;;;14.75;13.35;;;20.10;99.90;;;;;;4829620;29;20049;-86
2023/08/19 00:35:17;;;;;;;14.45;13.05;;;20.10;99.90;;;;;;4843722;29;20045;-87
2023/08/19 00:37:43;;;;;;;16.20;14.70;;;20.10;99.90;;;;;;4812935;29;20045;-87
2023/08/19 00:40:15;;;;;;;15.65;14.25;;;20.10;99.90;;;;;;4849116;29;20089;-87
2023/08/19 00:42:42;;;;;;;14.95;13.65;;;20.10;99.90;;;;;;4827617;29;20506;-88
2023/08/19 00:45:09;;;;;;;15.73;14.23;;;20.00;99.90;;;;;;4828047;29;20045;-86
2023/08/19 00:47:35;;;;;;;16.00;14.30;;;20.00;99.90;;;;;;4828544;29;20142;-85
2023/08/19 00:50:10;;;;;;;14.75;13.45;;;20.00;99.90;;;;;;4828314;29;20094;-83
2023/08/19 00:52:37;;;;;;;15.95;14.55;;;20.00;99.90;;;;;;4829075;29;20128;-88
2023/08/19 00:55:04;;;;;;;;;;;20.00;99.90;;;;;;4828524;29;20061;-85
2023/08/19 00:57:32;;;;;;;15.13;13.52;;;19.90;99.90;;;;;;4836115;29;19930;-87
2023/08/19 00:59:57;;;;;;;13.95;12.65;;;19.90;99.90;;;;;;4831993;29;20038;-87
2023/08/19 01:02:23;;;;;;;15.23;13.73;;;19.80;99.90;;;;;;4813753;29;20049;-88
2023/08/19 01:04:49;;;;;;;14.10;12.80;;;19.80;99.90;;;;;;4804406;29;20092;-88
2023/08/19 01:07:28;;;;;;;15.43;14.02;;;19.90;99.90;;;;;;4833947;29;20045;-89
2023/08/19 01:10:26;;;;;;;14.48;13.18;;;19.80;99.90;;;;;;4843398;29;20056;-87
2023/08/19 01:13:06;;;;;;;15.23;13.68;;;19.80;99.90;;;;;;4833026;29;20041;-90
2023/08/19 01:15:35;;;;;;;14.73;13.32;;;19.90;99.90;;;;;;4843658;29;20045;-89
2023/08/19 01:18:05;;;;;;;15.23;13.77;;;19.80;99.90;;;;;;4846493;29;20049;-93
2023/08/19 01:20:31;;;;;;;13.98;12.68;;;19.80;99.90;;;;;;4829460;29;20473;-91
2023/08/19 01:23:06;;;;;;;15.18;13.60;;;19.80;99.90;;;;;;4837235;29;20133;-95
2023/08/19 01:25:32;;;;;;;15.48;13.90;;;19.80;99.90;;;;;;4830390;29;20034;-95
2023/08/19 01:28:04;;;;;;;15.13;13.57;;;19.80;99.90;;;;;;4831130;29;20093;-95
2023/08/19 01:30:33;;;;;;;15.65;14.25;;;19.70;99.90;;;;;;4818315;29;20045;-94
2023/08/19 01:33:00;;;;;;;14.73;13.32;;;19.80;99.90;;;;;;4816069;29;20049;-92
2023/08/19 01:35:25;;;;;;;14.88;13.48;;;19.80;99.90;;;;;;4824464;29;20126;-95
2023/08/19 01:37:54;;;;;;;14.30;13.05;;;19.70;99.90;;;;;;4834714;29;20577;-93
2023/08/19 01:40:22;;;;;;;14.93;13.50;;;19.70;99.90;;;;;;4833379;29;20681;-93
2023/08/19 01:42:49;;;;;;;15.43;13.80;;;19.60;99.90;;;;;;4835089;29;20073;-92
2023/08/19 01:45:16;;;;;;;14.88;13.35;;;19.60;99.90;;;;;;4832731;29;20081;-90
2023/08/19 01:47:42;;;;;;;15.45;13.95;;;19.60;99.90;;;;;;4817623;29;20052;-90
2023/08/19 01:50:09;;;;;;;16.20;14.70;;;19.60;99.90;;;;;;4826003;29;20133;-90
2023/08/19 01:52:35;;;;;;;15.63;14.02;;;19.60;99.90;;;;;;4810812;29;20098;-92
2023/08/19 01:55:01;;;;;;;14.65;13.25;;;19.60;99.90;;;;;;4844657;29;20054;-94
2023/08/19 01:57:27;;;;;;;15.20;13.60;;;19.60;99.90;;;;;;4855893;29;20053;-96
2023/08/19 01:59:54;;;;;;;13.60;12.30;;;19.20;99.90;;;;;;4845552;29;20057;-94
2023/08/19 02:02:20;;;;;;;;;;;19.50;99.90;;;;;;4849940;29;20124;-89
2023/08/19 02:04:46;;;;;;;15.00;13.60;;;19.60;99.90;;;;;;4832809;29;19920;-87
2023/08/19 02:07:12;;;;;;;14.23;12.93;;;19.40;99.90;;;;;;4839734;29;20097;-89
2023/08/19 02:09:39;;;;;;;15.52;14.02;;;19.50;99.90;;;;;;4832043;29;20041;-88
2023/08/19 02:12:05;;;;;;;;;;;19.50;99.90;;;;;;4817910;29;20052;-89
2023/08/19 02:14:30;;;;;;;15.88;14.38;;;19.40;99.90;;;;;;4829891;29;19920;-88
2023/08/19 02:16:56;;;;;;;16.27;14.50;;;19.30;99.90;;;;;;4849806;29;20129;-91
2023/08/19 02:19:22;;;;;;;15.57;13.98;;;19.40;99.90;;;;;;4851186;29;20042;-85
2023/08/19 02:21:47;;;;;;;16.52;14.75;;;19.40;99.90;;;;;;4844146;29;20419;-84
2023/08/19 02:24:13;;;;;;;14.95;13.45;;;19.30;99.90;;;;;;4814294;29;20121;-84
2023/08/19 02:26:39;;;;;;;15.40;13.98;;;19.20;99.90;;;;;;4831453;29;20049;-87
2023/08/19 02:29:04;;;;;;;16.73;15.02;;;19.40;99.90;;;;;;4855066;29;20045;-88
2023/08/19 02:31:30;;;;;;;15.82;14.23;;;19.20;99.90;;;;;;4844390;29;20397;-88
2023/08/19 02:33:56;;;;;;;16.77;15.05;;;19.40;99.90;;;;;;4839452;29;20063;-88
2023/08/19 02:36:22;;;;;;;17.30;15.60;;;19.40;99.90;;;;;;4845186;29;20045;-88
2023/08/19 02:38:48;;;;;;;16.88;15.38;;;19.20;99.90;;;;;;4830033;29;20041;-87
2023/08/19 02:41:14;;;;;;;16.65;14.95;;;19.40;99.90;;;;;;4802618;29;20119;-87
2023/08/19 02:43:39;;;;;;;16.25;14.73;;;19.30;99.90;;;;;;4811054;29;20041;-85
2023/08/19 02:46:05;;;;;;;17.55;15.93;;;19.30;99.90;;;;;;4815142;29;20045;-85
2023/08/19 02:48:31;;;;;;;17.75;16.00;;;19.30;99.90;;;;;;4840804;29;20068;-86
2023/08/19 02:50:57;;;;;;;17.33;15.50;;;19.30;99.90;;;;;;4831327;29;20850;-86
2023/08/19 02:53:23;;;;;;;18.08;16.33;;;19.40;99.90;;;;;;4846567;29;20041;-87
2023/08/19 02:55:52;;;;;;;18.63;16.50;;;19.20;99.90;;;;;;4829528;29;20181;-89
2023/08/19 02:58:18;;;;;;;17.50;15.80;;;19.20;99.90;;;;;;4829861;29;20054;-89
2023/08/19 03:00:47;;;;;;;19.48;17.50;;;19.20;99.90;;;;;;4817419;29;20041;-90
2023/08/19 03:03:14;;;;;;;17.90;16.20;;;19.20;99.90;;;;;;4847359;29;20058;-85
2023/08/19 03:05:40;;;;;;;17.67;15.88;;;19.10;99.90;;;;;;4830227;29;20084;-86
2023/08/19 03:08:07;;;;;;;17.17;15.57;;;19.10;99.90;;;;;;4829227;29;20077;-84
2023/08/19 03:10:37;;;;;;;17.10;15.40;;;19.30;99.90;;;;;;4829522;29;20049;-85
2023/08/19 03:13:03;;;;;;;19.10;17.30;;;19.20;99.90;;;;;;4830028;29;20050;-89
2023/08/19 03:15:30;;;;;;;18.50;16.67;;;19.10;99.90;;;;;;4825994;29;20046;-89
2023/08/19 03:17:55;;;;;;;18.52;16.73;;;19.10;99.90;;;;;;4834868;29;20530;-86
2023/08/19 03:20:21;;;;;;;17.95;16.15;;;19.20;99.90;;;;;;4845821;29;20042;-86
2023/08/19 03:22:47;;;;;;;17.27;15.60;;;19.20;99.90;;;;;;4821967;29;20682;-90
2023/08/19 03:25:13;;;;;;;17.52;15.68;;;19.20;99.90;;;;;;4832029;29;20125;-94
2023/08/19 03:27:39;;;;;;;17.25;15.68;;;19.10;99.90;;;;;;4816933;29;20105;-94
2023/08/19 03:30:05;;;;;;;16.65;15.05;;;19.20;99.90;;;;;;4802507;29;20081;-92
2023/08/19 03:32:31;;;;;;;16.53;14.80;;;19.10;99.90;;;;;;4846085;29;20096;-91
2023/08/19 03:34:57;;;;;;;16.70;15.03;;;19.00;99.90;;;;;;4831676;29;20521;-94
2023/08/19 03:37:23;;;;;;;17.08;15.48;;;19.10;99.90;;;;;;4828446;29;20049;-91
2023/08/19 03:39:49;;;;;;;17.80;16.10;;;19.10;99.90;;;;;;4835818;29;20049;-91
2023/08/19 03:42:15;;;;;;;17.67;15.93;;;19.10;99.90;;;;;;4834558;29;20397;-88
2023/08/19 03:44:41;;;;;;;18.23;16.52;;;19.20;99.90;;;;;;4828830;29;20045;-87
2023/08/19 03:47:12;;;;;;;16.63;15.02;;;19.20;99.90;;;;;;4845164;29;20128;-86
2023/08/19 03:49:39;;;;;;;19.08;17.17;;;19.00;99.90;;;;;;4820988;29;20050;-88
2023/08/19 03:52:06;;;;;;;17.38;15.20;;;19.10;99.90;;;;;;4843804;29;20132;-84
2023/08/19 03:54:32;;;;;;;19.40;17.60;;;19.10;99.90;;;;;;4820921;29;20076;-88
2023/08/19 03:56:57;;;;;;;19.55;17.75;;;19.30;99.90;;;;;;4830464;29;20140;-89
2023/08/19 03:59:23;;;;;;;19.38;17.45;;;19.20;99.90;;;;;;4797823;29;20045;-88
2023/08/19 04:01:49;;;;;;;18.77;16.90;;;19.20;99.90;;;;;;4835505;29;20069;-84
2023/08/19 04:04:15;;;;;;;18.85;17.05;;;19.10;99.90;;;;;;4839841;29;20052;-86
2023/08/19 04:06:40;;;;;;;17.98;16.17;;;19.20;99.90;;;;;;4830947;29;20077;-87
2023/08/19 04:09:07;;;;;;;19.90;18.10;;;19.10;99.90;;;;;;4829126;29;20045;-86
2023/08/19 04:11:32;;;;;;;18.52;16.67;;;19.00;99.90;;;;;;4845811;29;20053;-88
2023/08/19 04:13:58;;;;;;;18.60;16.40;;;19.10;99.90;;;;;;4834292;29;20049;-91
2023/08/19 04:16:24;;;;;;;17.85;15.25;;;19.10;99.90;;;;;;4834753;29;20052;-90
2023/08/19 04:18:51;;;;;;;17.33;15.63;;;19.10;99.90;;;;;;4830209;29;20052;-87
2023/08/19 04:21:17;;;;;;;18.35;16.48;;;19.10;99.90;;;;;;4828900;29;20045;-90
2023/08/19 04:23:42;;;;;;;18.10;16.30;;;19.10;99.90;;;;;;4842094;29;20045;-89
2023/08/19 04:26:08;;;;;;;18.38;16.55;;;19.10;99.90;;;;;;4831951;29;20501;-87
2023/08/19 04:28:34;;;;;;;18.33;16.42;;;19.00;99.90;;;;;;4828489;29;20045;-89
2023/08/19 04:31:06;;;;;;;17.58;15.73;;;19.00;99.90;;;;;;4831743;29;20052;-87
2023/08/19 04:33:33;;;;;;;19.13;17.08;;;19.10;99.90;;;;;;4829860;29;20041;-87
2023/08/19 04:35:59;;;;;;;17.95;15.93;;;19.20;99.90;;;;;;4831598;29;20389;-88
2023/08/19 04:38:25;;;;;;;17.27;15.68;;;19.10;99.90;;;;;;4827125;29;20042;-90
2023/08/19 04:40:51;;;;;;;17.63;15.85;;;19.10;99.90;;;;;;4842353;29;20056;-88
2023/08/19 04:43:20;;;;;;;16.27;14.68;;;19.30;99.90;;;;;;4832022;29;20046;-89
2023/08/19 04:45:46;;;;;;;16.33;14.82;;;19.40;99.90;;;;;;4828771;29;20044;-88
2023/08/19 04:48:12;;;;;;;15.65;14.27;;;19.20;99.90;;;;;;4828833;29;20200;-89
2023/08/19 04:50:38;;;;;;;17.08;15.40;;;19.30;99.90;;;;;;4815696;29;20076;-88
2023/08/19 04:53:04;;;;;;;16.90;15.23;;;19.40;99.90;;;;;;4828749;29;20562;-88
2023/08/19 04:55:30;;;;;;;15.70;14.20;;;19.50;99.90;;;;;;4829432;29;20089;-89
2023/08/19 04:57:56;;;;;;;16.52;14.98;;;19.40;99.90;;;;;;4844200;29;20124;-86
2023/08/19 05:00:22;;;;;;;15.77;14.35;;;19.60;99.90;;;;;;4835685;29;20048;-90
2023/08/19 05:02:49;;;;;;;15.27;13.77;;;19.60;99.90;;;;;;4828464;29;20050;-89
2023/08/19 05:05:15;;;;;;;15.97;14.30;;;19.60;99.90;;;;;;4813433;29;20052;-88
2023/08/19 05:07:41;;;;;;;15.40;14.02;;;19.50;99.90;;;;;;4836663;29;20091;-89
2023/08/19 05:10:08;;;;;;;15.40;13.32;;;19.60;99.90;;;;;;4828441;29;20080;-87
2023/08/19 05:12:33;;;;;;;14.43;13.15;;;19.70;99.90;;;;;;4831298;29;20062;-92
2023/08/19 05:14:59;;;;;;;15.40;13.90;;;19.80;99.90;;;;;;4825906;29;20719;-89
2023/08/19 05:17:25;;;;;;;14.60;13.20;;;20.00;99.90;;;;;;4833066;29;20529;-89
2023/08/19 05:19:51;;;;;;;15.52;14.02;;;20.10;99.90;;;;;;4829200;29;20045;-89
2023/08/19 05:22:16;;;;;;;14.35;12.95;;;20.00;99.90;;;;;;4821309;29;20042;-91
2023/08/19 05:24:42;;;;;;;13.52;12.32;;;20.20;99.90;;;;;;4829422;29;20045;-91
2023/08/19 05:27:08;;;;;;;15.18;13.77;;;20.30;99.90;;;;;;4829144;29;20049;-91
2023/08/19 05:29:33;;;;;;;14.20;12.95;;;20.30;99.90;;;;;;4829229;29;20407;-85
2023/08/19 05:31:59;;;;;;;15.05;13.45;;;20.50;99.90;;;;;;4847922;29;20093;-92
2023/08/19 05:34:25;;;;;;;13.63;12.43;;;20.50;99.90;;;;;;4831793;29;20056;-85
2023/08/19 05:36:51;;;;;;;14.02;12.82;;;20.60;99.90;;;;;;4818197;29;20045;-85
2023/08/19 05:39:17;;;;;;;13.65;12.25;;;20.60;99.90;;;;;;4832951;29;20490;-89
2023/08/19 05:41:43;;;;;;;12.88;11.75;;;20.70;99.90;;;;;;4849030;29;20057;-85
2023/08/19 05:44:09;;;;;;;13.05;11.85;;;20.70;99.90;;;;;;4824836;29;20691;-89
2023/08/19 05:46:34;;;;;;;13.05;11.82;;;20.70;99.90;;;;;;4826861;29;20050;-90
2023/08/19 05:49:00;;;;;;;13.23;12.02;;;20.80;99.90;;;;;;4817562;29;20468;-90
2023/08/19 05:51:27;;;;;;;13.85;12.63;;;20.80;99.90;;;;;;4827119;29;20060;-85
2023/08/19 05:54:00;;;;;;;13.85;12.40;;;20.70;99.90;;;;;;4856419;29;20414;-89
2023/08/19 05:56:26;;;;;;;13.18;11.98;;;20.80;99.90;;;;;;4813993;29;20081;-90
2023/08/19 05:58:52;;;;;;;13.23;12.13;;;20.80;99.90;;;;;;4833947;29;20049;-89
2023/08/19 06:01:18;;;;;;;12.48;11.38;;;20.70;99.90;;;;;;4850196;29;20117;-90
2023/08/19 06:03:44;;;;;;;13.00;11.80;;;20.80;99.90;;;;;;4815625;29;20048;-88
2023/08/19 06:06:10;;;;;;;13.15;11.85;;;20.80;99.90;;;;;;4846896;29;20434;-90
2023/08/19 06:08:36;;;;;;;16.30;12.30;;;20.90;99.90;;;;;;4833292;29;20080;-87
2023/08/19 06:11:06;;;;;;;12.52;11.23;;;20.90;99.90;;;;;;4831231;29;20053;-88
2023/08/19 06:13:35;;;;;;;12.45;11.45;;;20.80;99.90;;;;;;4833908;29;20042;-87
2023/08/19 06:16:03;;;;;;;12.15;11.05;;;21.00;99.90;;;;;;4847032;29;20099;-88
2023/08/19 06:18:29;;;;;;;11.35;10.27;;;21.10;99.90;;;;;;4848634;29;20050;-89
2023/08/19 06:20:56;;;;;;;12.00;10.90;;;21.10;99.90;;;;;;4834708;29;20573;-88
2023/08/19 06:23:22;;;;;;;11.70;10.60;;;21.20;99.90;;;;;;4831311;29;20474;-89
2023/08/19 06:25:49;;;;;;;11.07;9.98;;;21.30;99.90;;;;;;4832323;29;20048;-91
2023/08/19 06:28:15;;;;;;;11.25;10.15;;;21.40;99.90;;;;;;4827601;29;20125;-89
2023/08/19 06:30:41;;;;;;;9.95;8.95;;;21.50;99.90;;;;;;4852452;29;20135;-88
2023/08/19 06:33:08;;;;;;;9.77;8.83;;;21.50;99.90;;;;;;4831162;29;20053;-89
2023/08/19 06:35:34;;;;;;;9.13;8.32;;;21.60;99.90;;;;;;4799160;29;20050;-85
2023/08/19 06:38:07;;;;;;;8.20;7.50;;;21.60;99.90;;;;;;4845661;29;20052;-85
2023/08/19 06:40:36;;;;;;;9.73;8.73;;;21.60;99.90;;;;;;4833680;29;20040;-92
2023/08/19 06:43:06;;;;;;;8.50;7.80;;;21.70;99.90;;;;;;4813644;29;20128;-86
2023/08/19 06:45:33;;;;;;;8.30;7.50;;;21.70;99.90;;;;;;4832433;29;20074;-86
2023/08/19 06:48:01;;;;;;;8.00;7.20;;;21.70;99.90;;;;;;4818628;29;20041;-89
2023/08/19 06:50:28;;;;;;;7.90;7.05;;;21.70;99.90;;;;;;4809676;29;20101;-90
2023/08/19 06:52:54;;;;;;;8.40;7.70;;;21.80;99.90;;;;;;4815430;29;20077;-90
2023/08/19 06:55:20;;;;;;;8.27;7.55;;;21.70;99.90;;;;;;4826922;29;20070;-88
2023/08/19 06:58:16;;;;;;;7.78;7.13;;;21.70;99.90;;;;;;4828679;29;20513;-88
2023/08/19 07:00:44;;;;;;;7.82;7.13;;;21.70;99.90;;;;;;4829565;29;20054;-89
2023/08/19 07:03:12;;;;;;;7.85;7.15;;;21.70;99.90;;;;;;4817208;29;20046;-87
2023/08/19 07:05:39;;;;;;;7.97;7.20;;;21.70;99.90;;;;;;4830819;29;20041;-92
2023/08/19 07:08:06;;;;;;;;;;;21.70;99.90;;;;;;4833614;29;20059;-85
2023/08/19 07:10:32;;;;;;;7.30;6.70;;;21.60;99.90;;;;;;4829981;29;19927;-90
2023/08/19 07:12:58;;;;;;;7.13;6.53;;;21.60;99.90;;;;;;4830005;29;20049;-86
2023/08/19 07:15:24;;;;;;;8.80;7.35;;;21.50;99.90;;;;;;4840873;29;20498;-85
2023/08/19 07:17:57;;;;;;;7.53;6.78;;;21.50;99.90;;;;;;4815357;29;20057;-89
2023/08/19 07:20:23;;;;;;;8.18;7.47;;;21.60;99.90;;;;;;4831692;29;20033;-90
2023/08/19 07:22:52;;;;;;;8.00;7.30;;;21.60;99.90;;;;;;4796694;29;20655;-89
2023/08/19 07:25:19;;;;;;;7.35;6.75;;;21.60;99.90;;;;;;4831136;29;20526;-89
2023/08/19 07:27:46;;;;;;;7.95;7.25;;;21.50;99.90;;;;;;4831881;29;20045;-83
2023/08/19 07:30:12;;;;;;;7.30;6.60;;;21.60;99.90;;;;;;4830832;29;20048;-87
2023/08/19 07:32:39;;;;;;;8.43;7.00;;;21.60;99.90;;;;;;4814732;29;20058;-83
2023/08/19 07:35:05;;;;;;;7.60;6.47;;;21.70;99.90;;;;;;4845415;29;20049;-90
2023/08/19 07:37:32;;;;;;;9.07;6.40;;;21.70;99.90;;;;;;4844697;29;20045;-90
2023/08/19 07:39:58;;;;;;;6.85;5.90;;;21.70;99.90;;;;;;4844277;29;20074;-84
2023/08/19 07:42:27;;;;;;;7.22;6.60;;;21.70;99.90;;;;;;4839287;29;20052;-88
2023/08/19 07:44:53;;;;;;;7.32;6.35;;;21.80;99.90;;;;;;4837817;29;20054;-88
2023/08/19 07:47:18;;;;;;;7.43;6.72;;;21.80;99.90;;;;;;4830341;29;20050;-87
2023/08/19 07:49:44;;;;;;;7.50;6.70;;;21.90;99.90;;;;;;4830625;29;20041;-86
2023/08/19 07:52:10;;;;;;;7.18;6.47;;;21.90;99.90;;;;;;4802736;29;20123;-87
2023/08/19 07:54:35;;;;;;;7.30;6.60;;;22.00;99.90;;;;;;4828678;29;20052;-87
2023/08/19 07:57:02;;;;;;;7.15;6.32;;;22.00;99.90;;;;;;4812809;29;20054;-88
2023/08/19 07:59:28;;;;;;;7.10;6.40;;;22.10;99.90;;;;;;4799993;29;20052;-89
2023/08/19 08:01:56;;;;;;;7.43;6.68;;;22.20;99.90;;;;;;4824515;29;20120;-90
2023/08/19 08:04:22;;;;;;;6.43;5.78;;;22.30;99.90;;;;;;4839875;29;20047;-91
2023/08/19 08:06:48;;;;;;;6.97;6.03;;;22.30;99.90;;;;;;4816785;29;20076;-89
2023/08/19 08:09:14;;;;;;;6.90;6.00;;;22.30;99.90;;;;;;4813554;29;20128;-90
2023/08/19 08:11:41;;;;;;;6.60;6.00;;;22.40;99.90;;;;;;4798838;29;20132;-87
2023/08/19 08:14:07;;;;;;;6.65;5.68;;;22.50;99.90;;;;;;4813197;29;20088;-91
2023/08/19 08:16:33;;;;;;;7.82;6.22;;;22.60;99.90;;;;;;4832611;29;20433;-87
2023/08/19 08:18:58;;;;;;;7.80;5.70;;;22.60;99.90;;;;;;4811640;29;20516;-88
2023/08/19 08:21:24;;;;;;;6.32;5.50;;;22.60;99.90;;;;;;4805124;29;20041;-88
2023/08/19 08:23:50;;;;;;;6.57;5.97;;;22.60;99.90;;;;;;4814745;29;20045;-88
2023/08/19 08:26:16;;;;;;;6.27;5.60;;;22.70;99.90;;;;;;4799342;29;20079;-91
2023/08/19 08:28:43;;;;;;;7.00;5.18;;;22.70;99.90;;;;;;4822816;29;20066;-87
2023/08/19 08:31:09;;;;;;;5.83;5.33;;;22.80;99.90;;;;;;4825880;29;20056;-90
2023/08/19 08:33:34;;;;;;;6.23;5.03;;;22.80;99.90;;;;;;4799864;29;20838;-89
2023/08/19 08:36:00;;;;;;;5.60;5.10;;;22.90;99.90;;;;;;4812817;29;20052;-88
2023/08/19 08:38:27;;;;;;;4.67;4.13;;;23.00;99.90;;;;;;4813905;29;20596;-91
2023/08/19 08:40:52;;;;;;;6.60;5.50;;;23.00;99.90;;;;;;4827883;29;20406;-85
2023/08/19 08:43:18;;;;;;;5.30;4.80;;;23.10;99.90;;;;;;4829896;29;20045;-88
2023/08/19 08:45:45;;;;;;;6.13;5.07;;;23.10;99.90;;;;;;4847273;29;20060;-90
2023/08/19 08:48:11;;;;;;;5.32;4.32;;;23.20;99.90;;;;;;4812308;29;20052;-82
2023/08/19 08:50:37;;;;;;;5.43;4.93;;;23.20;99.90;;;;;;4835449;29;20045;-90
2023/08/19 08:53:04;;;;;;;4.93;4.45;;;23.30;99.90;;;;;;4813438;29;20049;-89
2023/08/19 08:55:30;;;;;;;5.50;4.40;;;23.30;99.90;;;;;;4842716;29;20486;-87
2023/08/19 08:57:56;;;;;;;4.50;4.10;;;23.40;99.90;;;;;;4828722;29;20053;-89
2023/08/19 09:00:22;;;;;;;5.83;4.70;;;23.40;99.90;;;;;;4810438;29;20044;-87
2023/08/19 09:02:49;;;;;;;5.13;4.43;;;23.60;99.90;;;;;;4823206;29;20512;-86
2023/08/19 09:05:15;;;;;;;;;;;23.80;99.90;;;;;;4815730;29;20062;-86
2023/08/19 09:07:41;;;;;;;5.15;4.18;;;24.00;99.90;;;;;;4826712;29;19920;-89
2023/08/19 09:10:13;;;;;;;5.20;4.70;;;24.30;99.90;;;;;;4811973;29;20045;-84
2023/08/19 09:12:43;;;;;;;5.40;4.03;;;24.50;99.90;;;;;;4827355;29;20050;-84
2023/08/19 09:15:11;;;;;;;6.25;4.60;;;24.70;99.90;;;;;;4826629;29;20049;-88
2023/08/19 09:17:37;;;;;;;6.35;4.43;;;24.80;99.90;;;;;;4819224;29;20053;-87
2023/08/19 09:20:04;;;;;;;5.13;4.00;;;25.20;99.90;;;;;;4826422;29;20097;-89
2023/08/19 09:22:29;;;;;;;5.53;3.63;;;25.50;99.90;;;;;;4811132;29;20038;-84
2023/08/19 09:24:56;;;;;;;6.23;3.57;;;25.90;99.90;;;;;;4817508;29;20048;-87
2023/08/19 09:27:26;;;;;;;4.82;3.15;;;26.20;99.90;;;;;;4837828;29;20490;-87
2023/08/19 09:29:52;;;;;;;5.35;3.55;;;26.50;99.90;;;;;;4826963;29;20113;-83
2023/08/19 09:32:31;;;;;;;4.78;2.90;;;26.70;99.90;;;;;;4829759;29;20458;-87
2023/08/19 09:35:15;;;;;;;4.05;2.95;;;26.80;99.90;;;;;;4841421;29;20041;-84
2023/08/19 09:37:41;;;;;;;5.00;3.40;;;26.80;99.90;;;;;;4828600;29;20486;-84
2023/08/19 09:40:10;;;;;;;3.75;2.75;;;26.90;99.90;;;;;;4822753;29;20205;-84
2023/08/19 09:42:37;;;;;;;6.15;3.50;;;27.00;99.90;;;;;;4817506;29;20045;-85
2023/08/19 09:45:04;;;;;;;;;;;26.90;99.90;;;;;;4822981;29;20042;-84
2023/08/19 09:47:34;;;;;;;5.03;3.55;;;26.80;99.90;;;;;;4825011;29;19927;-87
2023/08/19 09:49:59;;;;;;;3.88;2.80;;;26.70;99.90;;;;;;4812354;29;20565;-83
2023/08/19 09:52:25;;;;;;;4.87;2.90;;;26.60;99.90;;;;;;4842558;29;20049;-85
2023/08/19 09:54:53;;;;;;;5.10;3.13;;;26.50;99.90;;;;;;4833807;29;20056;-87
2023/08/19 09:57:33;;;;;;;4.22;2.78;;;26.50;99.90;;;;;;4844042;29;20525;-82
2023/08/19 10:00:00;;;;;;;3.30;2.70;;;26.50;99.90;;;;;;4854422;29;20136;-83
2023/08/19 10:02:28;;;;;;;5.00;2.72;;;26.50;99.90;;;;;;4840902;29;20642;-83
2023/08/19 10:04:56;;;;;;;5.07;2.80;;;26.60;99.90;;;;;;4821784;29;20041;-82
2023/08/19 10:07:27;;;;;;;4.22;2.75;;;26.60;99.90;;;;;;4834008;29;20094;-86
2023/08/19 10:09:54;;;;;;;3.58;2.63;;;26.60;99.90;;;;;;4840392;29;20084;-85
2023/08/19 10:12:22;;;;;;;4.22;2.70;;;26.60;99.90;;;;;;4823991;29;20045;-84
2023/08/19 10:14:52;;;;;;;7.25;2.97;;;26.60;99.90;;;;;;4820660;29;20425;-87
2023/08/19 10:17:20;;;;;;;3.95;2.90;;;26.60;99.90;;;;;;4842967;29;20052;-86
2023/08/19 10:19:54;;;;;;;3.90;2.65;;;26.50;99.90;;;;;;4813280;29;20478;-83
2023/08/19 10:22:21;;;;;;;3.38;2.92;;;26.40;99.90;;;;;;4842803;29;20037;-84
2023/08/19 10:24:49;;;;;;;3.42;2.67;;;26.20;99.90;;;;;;4819371;29;20630;-86
2023/08/19 10:27:19;;;;;;;3.67;2.90;;;26.10;99.90;;;;;;4833588;29;20139;-84
2023/08/19 10:29:48;;;;;;;3.92;2.72;;;25.90;99.90;;;;;;4846280;29;20089;-86
2023/08/19 10:32:32;;;;;;;5.80;3.00;;;25.70;99.90;;;;;;4828770;29;20046;-82
2023/08/19 10:35:08;;;;;;;5.75;2.97;;;25.60;99.90;;;;;;4842516;29;20078;-82
2023/08/19 10:37:35;;;;;;;5.47;2.88;;;25.50;99.90;;;;;;4831710;29;20048;-86
2023/08/19 10:40:17;;;;;;;6.28;3.15;;;25.30;99.90;;;;;;4847282;29;20052;-82
2023/08/19 10:43:01;;;;;;;4.55;3.10;;;25.20;99.90;;;;;;4830938;29;20045;-85
2023/08/19 10:45:35;;;;;;;5.60;3.38;;;25.10;99.90;;;;;;4830001;29;20205;-87
2023/08/19 10:48:02;;;;;;;5.90;3.50;;;25.00;99.90;;;;;;4835154;29;20053;-91
2023/08/19 10:50:35;;;;;;;6.50;3.88;;;24.90;99.90;;;;;;4816974;29;20049;-90
2023/08/19 10:53:07;;;;;;;4.57;3.88;;;24.90;99.90;;;;;;4837290;29;20096;-91
2023/08/19 10:55:52;;;;;;;6.57;3.90;;;24.80;99.90;;;;;;4830380;29;20052;-92
2023/08/19 10:58:18;;;;;;;5.88;3.78;;;24.90;99.90;;;;;;4845539;29;20060;-88
2023/08/19 11:00:45;;;;;;;4.77;4.07;;;25.00;99.90;;;;;;4830011;29;20042;-84
2023/08/19 11:03:11;;;;;;;6.60;3.80;;;25.20;99.90;;;;;;4824282;29;20474;-88
2023/08/19 11:05:47;;;;;;;3.95;3.55;;;25.30;99.90;;;;;;4830469;29;20098;-87
2023/08/19 11:08:12;;;;;;;4.57;3.47;;;25.50;99.90;;;;;;4829038;29;20684;-83
2023/08/19 11:10:38;;;;;;;4.93;3.73;;;25.50;99.90;;;;;;4817959;29;20045;-83
2023/08/19 11:13:05;;;;;;;7.47;3.77;;;25.60;99.90;;;;;;4832602;29;20049;-82
2023/08/19 11:15:31;;;;;;;4.38;3.60;;;25.60;99.90;;;;;;4830057;29;20473;-83
2023/08/19 11:17:58;;;;;;;5.97;4.10;;;25.50;99.90;;;;;;4841723;29;20050;-83
2023/08/19 11:20:28;;;;;;;6.22;3.65;;;25.50;99.90;;;;;;4832567;29;20451;-83
2023/08/19 11:22:55;;;;;;;5.88;3.72;;;25.40;99.90;;;;;;4842559;29;20070;-83
2023/08/19 11:25:21;;;;;;;5.88;4.07;;;25.30;99.90;;;;;;4845519;29;20041;-87
2023/08/19 11:27:47;;;;;;;5.83;4.30;;;25.20;99.90;;;;;;4842966;29;20125;-85
2023/08/19 11:30:18;;;;;;;4.97;3.80;;;25.20;99.90;;;;;;4844446;29;20049;-83
2023/08/19 11:32:47;;;;;;;6.20;4.07;;;25.40;99.90;;;;;;4831259;29;20493;-85
2023/08/19 11:35:13;;;;;;;5.35;3.80;;;25.70;99.90;;;;;;4828924;29;20398;-85
2023/08/19 11:37:40;;;;;;;5.30;4.20;;;26.10;99.90;;;;;;4799596;29;20049;-86
2023/08/19 11:40:08;;;;;;;5.78;4.38;;;26.50;99.90;;;;;;4829684;29;20101;-85
2023/08/19 11:42:33;;;;;;;4.15;3.50;;;26.90;99.90;;;;;;4845323;29;20046;-83
2023/08/19 11:44:59;;;;;;;5.10;4.00;;;27.20;99.90;;;;;;4796746;29;20744;-85
2023/08/19 11:47:25;;;;;;;5.07;4.43;;;27.30;99.90;;;;;;4813189;29;20091;-85
2023/08/19 11:49:51;;;;;;;6.57;4.32;;;27.40;99.90;;;;;;4829604;29;20712;-83
2023/08/19 11:52:20;;;;;;;5.97;4.57;;;27.40;99.90;;;;;;4842465;29;20426;-83
2023/08/19 11:55:03;;;;;;;6.95;4.93;;;27.40;99.90;;;;;;4813744;29;20124;-85
2023/08/19 11:57:33;;;;;;;6.18;5.00;;;27.20;99.90;;;;;;4842150;29;20062;-85
2023/08/19 11:59:59;;;;;;;5.22;4.72;;;27.10;99.90;;;;;;4845037;29;20105;-82
2023/08/19 12:02:25;;;;;;;4.78;4.25;;;27.00;99.90;;;;;;4827695;29;20046;-83
2023/08/19 12:04:55;;;;;;;6.55;5.82;;;26.90;99.90;;;;;;4825499;29;20404;-84
2023/08/19 12:07:29;;;;;;;8.75;5.55;;;26.90;99.90;;;;;;4826134;29;20105;-83
2023/08/19 12:10:02;;;;;;;7.22;5.45;;;26.80;99.90;;;;;;4838677;29;20049;-83
2023/08/19 12:12:30;;;;;;;7.00;5.30;;;26.80;99.90;;;;;;4811588;29;20076;-85
2023/08/19 12:14:58;;;;;;;6.88;5.55;;;26.80;99.90;;;;;;4827687;29;20046;-81
2023/08/19 12:17:23;;;;;;;6.53;5.68;;;26.80;99.90;;;;;;4858269;29;20053;-84
2023/08/19 12:19:49;;;;;;;7.67;6.17;;;26.80;99.90;;;;;;4817559;29;20045;-84
2023/08/19 12:22:15;;;;;;;6.30;5.70;;;26.80;99.90;;;;;;4798394;29;20095;-83
2023/08/19 12:24:41;;;;;;;8.63;5.90;;;26.80;99.90;;;;;;4813740;29;20050;-83
2023/08/19 12:27:07;;;;;;;7.55;5.55;;;26.70;99.90;;;;;;4829007;29;20490;-84
2023/08/19 12:29:33;;;;;;;7.78;6.95;;;26.70;99.90;;;;;;4798873;29;20427;-82
2023/08/19 12:31:59;;;;;;;10.15;9.07;;;26.60;99.90;;;;;;4846461;29;20045;-82
2023/08/19 12:34:25;;;;;;;9.93;9.03;;;26.60;99.90;;;;;;4827531;29;20064;-82
2023/08/19 12:36:51;;;;;;;10.17;9.07;;;26.50;99.90;;;;;;4832762;29;20077;-82
2023/08/19 12:39:17;;;;;;;11.40;10.20;;;26.40;99.90;;;;;;4812345;29;20116;-83